KSGH/SGH METAR and TAF weather

Enter ICAO airport designator
Station Type Date Time Source
KSGH METAR 2022/08/12 14:56 UTC NOAA

KSGH 121456Z AUTO 03011G17KT 10SM SCT026 21/14 A3022 RMK AO2 SLP229 T02110144 51004 $


Station Type Date Time Source
KSGH Decoded METAR 2022/08/12 14:56 UTC NOAA

Springfield, Springfield-Beckley Municipal Airport, OH, United States (KSGH) 39-50-25N 083-50-24W
Aug 12, 2022 - 10:56 AM EDT / 2022.08.12 1456 UTC
Wind: from the NNE (030 degrees) at 13 MPH (11 KT) gusting to 20 MPH (17 KT):0
Visibility: 10 mile(s):0
Sky conditions: partly cloudy
Temperature: 70.0 F (21.1 C)
Dew Point: 57.9 F (14.4 C)
Relative Humidity: 65%
Pressure (altimeter): 30.22 in. Hg (1023 hPa)
Pressure tendency: 0.01 inches (0.4 hPa) higher than three hours ago
ob: KSGH 121456Z AUTO 03011G17KT 10SM SCT026 21/14 A3022 RMK AO2 SLP229 T02110144 51004
cycle: 15

Station Type Date Time Source
KSGH TAF UTC NOAA

Error!

Example: see airport list